createdAt,value
2023-03-25T00:01:19.416Z,10.00
2023-03-25T00:03:50.883Z,10.70
2023-03-25T00:06:21.255Z,9.60
2023-03-25T00:08:50.035Z,10.60
2023-03-25T00:11:20.287Z,10.70
2023-03-25T00:13:49.167Z,10.60
2023-03-25T00:16:19.254Z,10.00
2023-03-25T00:18:48.052Z,9.50
2023-03-25T00:21:16.692Z,9.70
2023-03-25T00:23:44.956Z,10.00
2023-03-25T00:26:13.383Z,9.90
2023-03-25T00:28:41.418Z,9.80
2023-03-25T00:31:14.942Z,9.90
2023-03-25T00:33:43.167Z,9.40
2023-03-25T00:36:14.840Z,9.40
2023-03-25T00:38:50.093Z,9.40
2023-03-25T00:41:28.389Z,9.10
2023-03-25T00:43:58.669Z,9.50
2023-03-25T00:46:30.119Z,9.30
2023-03-25T00:49:00.638Z,8.50
2023-03-25T00:51:31.318Z,9.20
2023-03-25T00:54:03.574Z,8.80
2023-03-25T00:56:32.137Z,8.70
2023-03-25T00:59:00.433Z,9.10
2023-03-25T01:01:30.791Z,9.70
2023-03-25T01:04:00.691Z,9.00
2023-03-25T01:06:35.200Z,8.90
2023-03-25T01:09:06.694Z,9.30
2023-03-25T01:11:37.786Z,8.90
2023-03-25T01:14:09.414Z,8.40
2023-03-25T01:16:38.016Z,9.00
2023-03-25T01:19:08.983Z,8.40
2023-03-25T01:21:37.271Z,8.20
2023-03-25T01:24:07.896Z,7.50
2023-03-25T01:26:38.146Z,8.50
2023-03-25T01:29:07.105Z,8.40
2023-03-25T01:31:35.289Z,7.70
2023-03-25T01:34:03.971Z,8.70
2023-03-25T01:36:32.008Z,7.20
2023-03-25T01:39:01.555Z,8.70
2023-03-25T01:41:39.130Z,7.90
2023-03-25T01:44:15.195Z,7.80
2023-03-25T01:46:45.265Z,8.20
2023-03-25T01:49:21.645Z,7.20
2023-03-25T01:51:53.558Z,8.50
2023-03-25T01:54:22.255Z,7.60
2023-03-25T01:56:52.620Z,7.30
2023-03-25T01:59:24.992Z,7.70
2023-03-25T02:01:56.645Z,8.00
2023-03-25T02:04:45.639Z,8.00
2023-03-25T02:07:16.844Z,7.70
2023-03-25T02:09:45.302Z,8.00
2023-03-25T02:12:13.751Z,9.40
2023-03-25T02:14:41.926Z,8.60
2023-03-25T02:17:49.909Z,8.20
2023-03-25T02:20:42.193Z,6.40
2023-03-25T02:23:31.550Z,7.00
2023-03-25T02:26:36.653Z,7.40
2023-03-25T02:29:34.167Z,8.00
2023-03-25T02:32:27.038Z,6.90
2023-03-25T02:35:13.184Z,6.50
2023-03-25T02:38:07.575Z,6.60
2023-03-25T02:40:56.222Z,7.20
2023-03-25T02:43:32.579Z,6.10
2023-03-25T02:46:08.492Z,6.10
2023-03-25T02:49:03.180Z,5.10
2023-03-25T02:51:42.752Z,5.90
2023-03-25T02:54:13.773Z,5.60
2023-03-25T02:56:47.508Z,5.70
2023-03-25T02:59:18.434Z,5.40
2023-03-25T03:01:51.032Z,5.00
2023-03-25T03:04:20.823Z,5.80
2023-03-25T03:06:49.494Z,5.20
2023-03-25T03:09:23.116Z,5.20
2023-03-25T03:12:29.487Z,6.20
2023-03-25T03:17:56.303Z,6.60
2023-03-25T03:20:55.833Z,6.10
2023-03-25T03:23:46.290Z,6.50
2023-03-25T03:26:27.317Z,6.10
2023-03-25T03:29:08.525Z,5.40
2023-03-25T03:32:05.888Z,6.40
2023-03-25T03:34:43.309Z,5.80
2023-03-25T03:37:18.858Z,5.80
2023-03-25T03:39:49.347Z,6.30
2023-03-25T03:42:41.928Z,6.30
2023-03-25T03:45:19.195Z,6.40
2023-03-25T03:47:51.597Z,6.20
2023-03-25T03:50:24.477Z,6.90
2023-03-25T03:53:03.137Z,6.50
2023-03-25T03:55:41.972Z,7.10
2023-03-25T03:58:16.384Z,6.10
2023-03-25T04:00:50.673Z,7.10
2023-03-25T04:03:28.540Z,6.80
2023-03-25T04:06:10.377Z,6.60
2023-03-25T04:08:51.967Z,6.50
2023-03-25T04:11:24.753Z,6.90
2023-03-25T04:13:57.682Z,6.70
2023-03-25T04:16:26.092Z,6.10
2023-03-25T04:18:55.453Z,6.30
2023-03-25T04:21:24.259Z,6.40
2023-03-25T04:23:52.316Z,5.90
2023-03-25T04:26:21.845Z,6.10
2023-03-25T04:28:49.901Z,6.60
2023-03-25T04:31:18.092Z,6.50
2023-03-25T04:33:48.697Z,6.20
2023-03-25T04:36:16.931Z,6.70
2023-03-25T04:38:48.095Z,6.60
2023-03-25T04:41:17.569Z,6.40
2023-03-25T04:43:45.819Z,5.80
2023-03-25T04:46:16.417Z,5.90
2023-03-25T04:48:45.653Z,6.30
2023-03-25T04:51:15.601Z,5.90
2023-03-25T04:53:43.991Z,6.40
2023-03-25T04:56:17.215Z,6.40
2023-03-25T04:58:46.037Z,8.20
2023-03-25T05:01:32.483Z,11.30
2023-03-25T05:04:05.948Z,12.70
2023-03-25T05:06:39.948Z,13.40
2023-03-25T05:09:11.921Z,13.90
2023-03-25T05:11:41.908Z,14.40
2023-03-25T05:14:11.695Z,14.90
2023-03-25T05:16:40.772Z,14.60
2023-03-25T05:19:09.794Z,16.10
2023-03-25T05:21:39.343Z,16.00
2023-03-25T05:24:10.981Z,16.40
2023-03-25T05:26:41.069Z,15.50
2023-03-25T05:29:14.904Z,16.10
2023-03-25T05:31:48.959Z,15.60
2023-03-25T05:34:17.563Z,16.30
2023-03-25T05:36:46.130Z,14.40
2023-03-25T05:39:14.576Z,13.90
2023-03-25T05:41:45.697Z,14.00
2023-03-25T05:44:18.787Z,10.40
2023-03-25T05:46:47.054Z,8.80
2023-03-25T05:49:15.257Z,8.30
2023-03-25T05:51:45.329Z,7.60
2023-03-25T05:54:13.474Z,7.40
2023-03-25T05:56:43.761Z,7.30
2023-03-25T05:59:11.970Z,7.50
2023-03-25T06:01:43.270Z,7.30
2023-03-25T06:04:14.752Z,6.30
2023-03-25T06:06:42.787Z,6.60
2023-03-25T06:09:11.939Z,7.30
2023-03-25T06:11:40.114Z,7.20
2023-03-25T06:14:08.304Z,6.70
2023-03-25T06:16:37.126Z,7.20
2023-03-25T06:19:05.237Z,6.90
2023-03-25T06:21:34.594Z,7.20
2023-03-25T06:24:03.120Z,7.60
2023-03-25T06:26:32.893Z,7.20
2023-03-25T06:29:03.826Z,7.30
2023-03-25T06:31:34.407Z,7.60
2023-03-25T06:34:03.028Z,7.60
2023-03-25T06:36:31.717Z,7.00
2023-03-25T06:39:00.075Z,6.90
2023-03-25T06:41:29.326Z,7.20
2023-03-25T06:44:09.913Z,7.40
2023-03-25T06:46:47.015Z,6.80
2023-03-25T06:49:18.252Z,7.60
2023-03-25T06:51:47.000Z,7.70
2023-03-25T06:54:15.578Z,8.30
2023-03-25T06:56:45.213Z,8.10
2023-03-25T06:59:13.385Z,8.10
2023-03-25T07:01:43.384Z,7.70
2023-03-25T07:04:11.433Z,8.50
2023-03-25T07:06:39.531Z,8.40
2023-03-25T07:09:08.163Z,7.70
2023-03-25T07:11:36.324Z,8.50
2023-03-25T07:14:07.499Z,8.90
2023-03-25T07:16:35.988Z,11.30
2023-03-25T07:19:04.245Z,9.90
2023-03-25T07:21:32.474Z,10.00
2023-03-25T07:24:04.025Z,7.70
2023-03-25T07:26:32.166Z,8.30
2023-03-25T07:29:01.451Z,7.90
2023-03-25T07:31:31.460Z,8.80
2023-03-25T07:33:59.998Z,8.50
2023-03-25T07:36:28.675Z,9.50
2023-03-25T07:38:59.201Z,8.50
2023-03-25T07:41:27.288Z,8.60
2023-03-25T07:44:12.573Z,9.20
2023-03-25T07:46:40.806Z,9.80
2023-03-25T07:49:08.924Z,11.00
2023-03-25T07:51:36.981Z,12.70
2023-03-25T07:54:06.400Z,12.60
2023-03-25T07:56:34.903Z,13.00
2023-03-25T07:59:05.093Z,13.70
2023-03-25T08:01:34.240Z,16.60
2023-03-25T08:04:02.532Z,16.80
2023-03-25T08:06:31.399Z,17.40
2023-03-25T08:09:00.701Z,16.70
2023-03-25T08:11:28.984Z,16.60
2023-03-25T08:13:57.859Z,18.20
2023-03-25T08:16:27.927Z,17.50
2023-03-25T08:18:56.409Z,17.30
2023-03-25T08:21:28.041Z,17.10
2023-03-25T08:24:03.270Z,17.60
2023-03-25T08:29:02.844Z,24.20
2023-03-25T08:31:33.353Z,23.80
2023-03-25T08:34:02.762Z,24.50
2023-03-25T08:36:33.564Z,24.40
2023-03-25T08:39:08.301Z,23.90
2023-03-25T08:41:38.685Z,24.10
2023-03-25T08:44:10.497Z,23.40
2023-03-25T08:46:38.628Z,24.70
2023-03-25T08:49:08.748Z,22.90
2023-03-25T08:51:36.880Z,22.70
2023-03-25T08:54:05.395Z,31.20
2023-03-25T08:56:35.227Z,26.20
2023-03-25T08:59:05.721Z,23.50
2023-03-25T09:01:34.631Z,22.40
2023-03-25T09:04:06.672Z,24.20
2023-03-25T09:06:47.819Z,22.90
2023-03-25T09:09:24.754Z,21.80
2023-03-25T09:11:55.427Z,22.00
2023-03-25T09:14:23.693Z,21.90
2023-03-25T09:16:52.356Z,22.30
2023-03-25T09:19:21.922Z,23.80
2023-03-25T09:21:50.441Z,27.40
2023-03-25T09:24:18.600Z,26.80
2023-03-25T09:26:46.763Z,26.50
2023-03-25T09:29:15.136Z,25.20
2023-03-25T09:31:43.403Z,26.30
2023-03-25T09:34:14.646Z,25.40
2023-03-25T09:36:48.041Z,25.30
2023-03-25T09:39:19.570Z,24.70
2023-03-25T09:42:11.870Z,23.20
2023-03-25T09:45:11.956Z,27.00
2023-03-25T09:48:06.194Z,25.90
2023-03-25T09:50:37.028Z,29.60
2023-03-25T09:53:31.107Z,26.30
2023-03-25T09:56:00.661Z,25.50
2023-03-25T09:58:42.192Z,27.90
2023-03-25T10:01:33.242Z,29.40
2023-03-25T10:04:23.310Z,34.40
2023-03-25T10:07:06.289Z,30.10
2023-03-25T10:09:57.572Z,28.90
2023-03-25T10:12:37.485Z,23.80
2023-03-25T10:15:24.990Z,25.20
2023-03-25T10:18:21.185Z,24.10
2023-03-25T10:21:21.686Z,24.80
2023-03-25T10:24:05.639Z,20.40
2023-03-25T10:26:40.971Z,22.90
2023-03-25T10:29:33.501Z,21.30
2023-03-25T10:32:07.789Z,21.20
2023-03-25T10:34:46.842Z,19.30
2023-03-25T10:37:21.996Z,18.40
2023-03-25T10:39:51.767Z,17.20
2023-03-25T10:42:24.942Z,14.90
2023-03-25T10:44:54.601Z,15.70
2023-03-25T10:47:30.845Z,11.20
2023-03-25T10:49:59.864Z,10.80
2023-03-25T10:52:29.072Z,11.30
2023-03-25T10:55:07.667Z,11.20
2023-03-25T10:57:37.271Z,10.30
2023-03-25T11:00:20.576Z,12.50
2023-03-25T11:02:49.199Z,10.30
2023-03-25T11:05:21.517Z,9.50
2023-03-25T11:08:23.684Z,9.90
2023-03-25T11:10:58.671Z,9.40
2023-03-25T11:13:31.387Z,10.70
2023-03-25T11:16:03.142Z,11.90
2023-03-25T11:18:40.797Z,12.40
2023-03-25T11:21:13.874Z,10.20
2023-03-25T11:23:51.601Z,9.10
2023-03-25T11:26:19.764Z,9.50
2023-03-25T11:28:56.076Z,9.60
2023-03-25T11:31:28.626Z,8.90
2023-03-25T11:34:17.598Z,9.70
2023-03-25T11:37:02.155Z,9.70
2023-03-25T11:39:37.077Z,8.10
2023-03-25T11:42:37.890Z,4.90
2023-03-25T11:45:07.102Z,3.80
2023-03-25T11:47:38.211Z,3.10
2023-03-25T11:50:07.519Z,2.20
2023-03-25T11:52:43.632Z,2.10
2023-03-25T11:55:27.822Z,2.30
2023-03-25T11:57:58.904Z,1.90
2023-03-25T12:00:34.201Z,2.00
2023-03-25T12:03:14.786Z,4.80
2023-03-25T12:05:43.305Z,1.40
2023-03-25T12:08:18.775Z,1.00
2023-03-25T12:11:05.084Z,1.10
2023-03-25T12:13:45.589Z,0.90
2023-03-25T12:16:23.926Z,0.70
2023-03-25T12:19:01.299Z,1.10
2023-03-25T12:22:00.977Z,0.90
2023-03-25T12:24:58.319Z,0.50
2023-03-25T12:27:29.511Z,0.60
2023-03-25T12:30:10.870Z,0.80
2023-03-25T12:32:55.810Z,2.30
2023-03-25T12:35:47.921Z,1.00
2023-03-25T12:38:37.283Z,1.30
2023-03-25T12:41:21.920Z,1.50
2023-03-25T12:43:58.958Z,1.00
2023-03-25T12:46:37.341Z,1.10
2023-03-25T12:49:22.335Z,1.00
2023-03-25T12:52:26.314Z,1.10
2023-03-25T12:55:11.546Z,0.80
2023-03-25T12:57:56.050Z,1.00
2023-03-25T13:00:36.916Z,1.50
2023-03-25T13:03:13.256Z,0.90
2023-03-25T13:06:00.238Z,3.00
2023-03-25T13:08:37.694Z,1.20
2023-03-25T13:11:18.756Z,1.10
2023-03-25T13:13:50.142Z,0.80
2023-03-25T13:16:25.543Z,0.80
2023-03-25T13:18:56.975Z,0.90
2023-03-25T13:21:32.235Z,0.70
2023-03-25T13:24:27.958Z,0.90
2023-03-25T13:26:58.016Z,0.40
2023-03-25T13:29:39.381Z,0.60
2023-03-25T13:32:15.323Z,0.70
2023-03-25T13:34:50.361Z,0.90
2023-03-25T13:37:21.997Z,0.90
2023-03-25T13:40:13.205Z,0.60
2023-03-25T13:42:47.473Z,0.90
2023-03-25T13:45:20.732Z,1.40
2023-03-25T13:48:01.396Z,0.50
2023-03-25T13:50:31.932Z,0.40
2023-03-25T13:53:05.283Z,0.40
2023-03-25T13:55:46.117Z,0.60
2023-03-25T13:58:36.415Z,0.60
2023-03-25T14:01:48.624Z,0.80
2023-03-25T14:04:35.120Z,0.60
2023-03-25T14:07:21.965Z,0.80
2023-03-25T14:10:11.774Z,1.00
2023-03-25T14:12:51.829Z,0.90
2023-03-25T14:15:31.934Z,0.60
2023-03-25T14:18:02.660Z,0.80
2023-03-25T14:20:38.108Z,1.10
2023-03-25T14:23:14.081Z,0.60
2023-03-25T14:28:32.906Z,1.20
2023-03-25T14:31:32.078Z,1.10
2023-03-25T14:34:00.354Z,0.90
2023-03-25T14:36:39.576Z,1.00
2023-03-25T14:39:13.134Z,0.60
2023-03-25T14:42:13.493Z,0.80
2023-03-25T14:44:49.945Z,1.00
2023-03-25T14:47:27.948Z,2.00
2023-03-25T14:50:05.348Z,1.00
2023-03-25T14:52:40.664Z,1.40
2023-03-25T14:55:20.282Z,1.10
2023-03-25T14:57:51.395Z,1.20
2023-03-25T15:00:27.488Z,0.90
2023-03-25T15:03:05.293Z,1.00
2023-03-25T15:05:36.732Z,0.70
2023-03-25T15:08:09.614Z,0.70
2023-03-25T15:10:45.824Z,1.00
2023-03-25T15:13:27.497Z,1.70
2023-03-25T15:16:01.659Z,1.60
2023-03-25T15:18:35.782Z,1.40
2023-03-25T15:21:09.442Z,1.10
2023-03-25T15:23:42.925Z,1.00
2023-03-25T15:26:18.696Z,1.60
2023-03-25T15:29:02.124Z,1.30
2023-03-25T15:31:42.122Z,2.10
2023-03-25T15:34:18.440Z,1.00
2023-03-25T15:37:05.631Z,1.00
2023-03-25T15:39:44.935Z,1.00
2023-03-25T15:42:38.928Z,1.70
2023-03-25T15:45:13.901Z,1.10
2023-03-25T15:47:42.000Z,1.30
2023-03-25T15:50:29.684Z,1.10
2023-03-25T15:53:25.865Z,1.00
2023-03-25T15:56:13.698Z,0.80
2023-03-25T15:59:16.255Z,1.00
2023-03-25T16:01:52.029Z,1.00
2023-03-25T16:04:33.314Z,1.20
2023-03-25T16:07:05.541Z,1.50
2023-03-25T16:09:41.794Z,1.20
2023-03-25T16:12:11.072Z,1.50
2023-03-25T16:14:44.105Z,1.40
2023-03-25T16:17:15.214Z,2.10
2023-03-25T16:19:49.687Z,1.70
2023-03-25T16:22:34.622Z,1.30
2023-03-25T16:25:06.841Z,1.80
2023-03-25T16:27:41.846Z,1.80
2023-03-25T16:32:53.797Z,1.50
2023-03-25T16:35:26.015Z,1.60
2023-03-25T16:37:58.500Z,1.70
2023-03-25T16:40:31.052Z,2.10
2023-03-25T16:43:13.900Z,1.70
2023-03-25T16:45:44.368Z,1.90
2023-03-25T16:48:35.607Z,2.00
2023-03-25T16:51:14.173Z,2.00
2023-03-25T16:53:44.095Z,2.10
2023-03-25T16:56:15.216Z,1.50
2023-03-25T16:59:00.252Z,2.00
2023-03-25T17:01:33.777Z,2.10
2023-03-25T17:04:11.712Z,1.90
2023-03-25T17:06:43.307Z,2.50
2023-03-25T17:09:17.979Z,2.20
2023-03-25T17:11:48.139Z,2.20
2023-03-25T17:14:23.984Z,2.60
2023-03-25T17:16:54.228Z,2.20
2023-03-25T17:19:26.168Z,2.50
2023-03-25T17:22:16.523Z,2.70
2023-03-25T17:24:58.037Z,3.70
2023-03-25T17:27:44.544Z,4.10
2023-03-25T17:30:22.172Z,5.60
2023-03-25T17:32:51.172Z,4.40
2023-03-25T17:35:31.725Z,3.90
2023-03-25T17:38:00.773Z,4.50
2023-03-25T17:40:31.270Z,6.20
2023-03-25T17:42:59.738Z,6.70
2023-03-25T17:45:28.004Z,5.10
2023-03-25T17:47:56.848Z,12.30
2023-03-25T17:50:27.665Z,6.30
2023-03-25T17:52:55.827Z,6.50
2023-03-25T17:55:23.965Z,5.90
2023-03-25T17:57:52.025Z,4.90
2023-03-25T18:00:20.790Z,6.30
2023-03-25T18:02:49.049Z,5.50
2023-03-25T18:05:17.601Z,5.50
2023-03-25T18:07:45.765Z,7.90
2023-03-25T18:10:20.401Z,4.80
2023-03-25T18:12:48.640Z,5.20
2023-03-25T18:15:16.938Z,5.60
2023-03-25T18:17:45.202Z,5.00
2023-03-25T18:20:21.845Z,6.40
2023-03-25T18:22:53.371Z,7.70
2023-03-25T18:25:24.376Z,8.10
2023-03-25T18:27:54.790Z,12.50
2023-03-25T18:30:29.784Z,10.70
2023-03-25T18:32:58.039Z,14.10
2023-03-25T18:35:26.404Z,14.30
2023-03-25T18:37:54.887Z,9.60
2023-03-25T18:40:30.501Z,10.20
2023-03-25T18:42:58.669Z,8.00
2023-03-25T18:45:27.474Z,7.40
2023-03-25T18:47:57.654Z,7.10
2023-03-25T18:50:30.558Z,6.00
2023-03-25T18:52:59.719Z,5.90
2023-03-25T18:55:29.910Z,8.40
2023-03-25T18:57:58.888Z,8.10
2023-03-25T19:00:31.168Z,5.80
2023-03-25T19:02:59.428Z,5.60
2023-03-25T19:05:27.976Z,5.20
2023-03-25T19:07:56.374Z,5.10
2023-03-25T19:10:28.144Z,4.60
2023-03-25T19:12:56.448Z,4.50
2023-03-25T19:15:27.900Z,4.90
2023-03-25T19:18:02.114Z,5.50
2023-03-25T19:20:33.704Z,5.20
2023-03-25T19:23:05.034Z,5.20
2023-03-25T19:25:33.508Z,4.90
2023-03-25T19:28:01.762Z,4.60
2023-03-25T19:30:31.720Z,5.30
2023-03-25T19:33:02.235Z,5.30
2023-03-25T19:35:32.494Z,7.10
2023-03-25T19:38:03.542Z,5.70
2023-03-25T19:40:36.688Z,8.50
2023-03-25T19:43:06.715Z,5.30
2023-03-25T19:45:35.679Z,6.20
2023-03-25T19:48:04.048Z,6.00
2023-03-25T19:50:33.672Z,5.60
2023-03-25T19:53:06.240Z,7.70
2023-03-25T19:55:34.509Z,10.00
2023-03-25T19:58:02.856Z,7.80
2023-03-25T20:00:31.941Z,9.60
2023-03-25T20:03:01.892Z,7.20
2023-03-25T20:05:32.172Z,6.80
2023-03-25T20:08:00.450Z,6.50
2023-03-25T20:10:30.460Z,6.70
2023-03-25T20:12:59.075Z,7.60
2023-03-25T20:15:27.277Z,6.90
2023-03-25T20:17:56.564Z,7.20
2023-03-25T20:20:25.853Z,7.30
2023-03-25T20:22:54.147Z,6.70
2023-03-25T20:25:22.480Z,6.50
2023-03-25T20:27:51.622Z,6.60
2023-03-25T20:30:20.363Z,6.40
2023-03-25T20:32:49.803Z,6.80
2023-03-25T20:35:18.889Z,6.40
2023-03-25T20:37:49.137Z,7.00
2023-03-25T20:40:18.431Z,7.50
2023-03-25T20:42:47.514Z,6.60
2023-03-25T20:45:17.933Z,7.50
2023-03-25T20:47:46.414Z,7.30
2023-03-25T20:50:16.705Z,6.10
2023-03-25T20:52:45.044Z,5.90
2023-03-25T20:55:13.884Z,5.50
2023-03-25T20:57:42.043Z,6.50
2023-03-25T21:00:14.842Z,7.80
2023-03-25T21:02:45.106Z,7.30
2023-03-25T21:05:14.221Z,7.90
2023-03-25T21:07:42.260Z,9.50
2023-03-25T21:10:11.093Z,8.70
2023-03-25T21:12:44.028Z,7.80
2023-03-25T21:15:16.782Z,11.30
2023-03-25T21:17:44.987Z,9.30
2023-03-25T21:20:13.264Z,7.00
2023-03-25T21:22:43.891Z,7.10
2023-03-25T21:25:14.840Z,6.00
2023-03-25T21:27:45.523Z,7.20
2023-03-25T21:30:15.760Z,6.30
2023-03-25T21:32:43.910Z,6.20
2023-03-25T21:35:12.217Z,5.90
2023-03-25T21:37:40.602Z,5.90
2023-03-25T21:40:11.338Z,6.70
2023-03-25T21:42:41.513Z,8.40
2023-03-25T21:45:13.757Z,6.70
2023-03-25T21:47:43.715Z,5.10
2023-03-25T21:50:13.507Z,5.30
2023-03-25T21:52:46.509Z,4.90
2023-03-25T21:55:16.644Z,5.00
2023-03-25T21:57:45.285Z,4.70
2023-03-25T22:00:17.635Z,3.80
2023-03-25T22:02:47.478Z,4.00
2023-03-25T22:05:16.964Z,3.60
2023-03-25T22:07:45.079Z,3.60
2023-03-25T22:10:13.197Z,2.70
2023-03-25T22:12:41.428Z,3.40
2023-03-25T22:15:10.479Z,2.90
2023-03-25T22:17:38.643Z,2.70
2023-03-25T22:20:07.766Z,2.50
2023-03-25T22:22:36.965Z,2.50
2023-03-25T22:25:06.986Z,2.00
2023-03-25T22:27:36.497Z,2.20
2023-03-25T22:30:08.396Z,2.10
2023-03-25T22:32:36.736Z,2.00
2023-03-25T22:35:05.379Z,1.90
2023-03-25T22:37:37.208Z,2.60
2023-03-25T22:40:09.300Z,2.30
2023-03-25T22:42:37.647Z,1.70
2023-03-25T22:45:06.567Z,2.20
2023-03-25T22:47:35.005Z,2.50
2023-03-25T22:50:03.595Z,1.90
2023-03-25T22:52:31.654Z,2.40
2023-03-25T22:54:59.735Z,2.10
2023-03-25T22:57:28.142Z,1.80
2023-03-25T22:59:56.144Z,2.00
2023-03-25T23:02:24.928Z,1.90
2023-03-25T23:04:53.055Z,2.10
2023-03-25T23:07:21.273Z,1.90
2023-03-25T23:09:49.314Z,1.80
2023-03-25T23:12:23.004Z,1.60
2023-03-25T23:14:55.649Z,2.10
2023-03-25T23:17:26.751Z,1.80
2023-03-25T23:19:54.826Z,1.40
2023-03-25T23:22:22.873Z,1.70
2023-03-25T23:24:51.077Z,1.90
2023-03-25T23:27:19.510Z,1.80
2023-03-25T23:29:48.094Z,1.60
2023-03-25T23:32:16.635Z,1.50
2023-03-25T23:34:45.389Z,1.70
2023-03-25T23:37:15.302Z,1.50
2023-03-25T23:39:46.229Z,1.60
2023-03-25T23:42:14.258Z,1.70
2023-03-25T23:44:43.736Z,1.30
2023-03-25T23:47:12.178Z,1.30
2023-03-25T23:49:40.528Z,1.40
2023-03-25T23:52:11.527Z,1.60
2023-03-25T23:54:40.359Z,1.80
2023-03-25T23:57:08.436Z,1.90
2023-03-25T23:59:36.531Z,1.70
